Time;durP1;ratioP1;P1;durP2;ratioP2;P2;SDS_P1;SDS_P2;PMS_P1;PMS_P2;Temp;Humidity;BMP_temperature;BMP_pressure;BME280_temperature;BME280_humidity;BME280_pressure;Samples;Min_cycle;Max_cycle;Signal;HPM_P1;HPM_P2
2022/06/17 00:00:39;;;;;;;;;4.75;2.00;;;;;;;;5081720;27;51144;-56
2022/06/17 00:03:25;;;;;;;;;1.50;1.50;;;;;;;;5081814;27;51095;-57
2022/06/17 00:06:11;;;;;;;;;1.50;1.50;;;;;;;;5081923;27;51067;-56
2022/06/17 00:08:56;;;;;;;;;2.00;2.00;;;;;;;;5065895;27;51456;-57
2022/06/17 00:11:41;;;;;;;;;3.00;2.25;;;;;;;;5080335;27;51040;-55
2022/06/17 00:14:31;;;;;;;;;2.75;2.00;;;;;;;;5081823;27;51393;-55
2022/06/17 00:17:15;;;;;;;;;4.50;2.50;;;;;;;;5079251;27;51125;-57
2022/06/17 00:19:59;;;;;;;;;6.00;2.75;;;;;;;;5081653;27;51150;-56
2022/06/17 00:22:45;;;;;;;;;4.00;2.50;;;;;;;;5081588;27;51260;-55
2022/06/17 00:25:32;;;;;;;;;5.50;3.00;;;;;;;;5081431;27;51103;-56
2022/06/17 00:28:21;;;;;;;;;4.50;2.00;;;;;;;;5081491;27;51066;-55
2022/06/17 00:31:05;;;;;;;;;5.25;2.25;;;;;;;;5081500;27;51189;-56
2022/06/17 00:33:50;;;;;;;;;2.00;2.00;;;;;;;;5081205;27;51095;-56
2022/06/17 00:36:34;;;;;;;;;2.00;2.00;;;;;;;;5081287;27;51054;-56
2022/06/17 00:39:22;;;;;;;;;4.00;1.00;;;;;;;;5078983;27;51317;-57
2022/06/17 00:42:11;;;;;;;;;1.75;1.75;;;;;;;;5080988;27;51234;-56
2022/06/17 00:44:58;;;;;;;;;3.50;1.75;;;;;;;;5080977;27;51147;-55
2022/06/17 00:47:52;;;;;;;;;1.75;1.00;;;;;;;;5080951;27;51063;-56
2022/06/17 00:50:36;;;;;;;;;2.00;2.00;;;;;;;;5081249;27;51325;-56
2022/06/17 00:53:23;;;;;;;;;4.00;3.25;;;;;;;;5081177;27;51103;-56
2022/06/17 00:56:16;;;;;;;;;1.50;1.50;;;;;;;;5081178;27;51129;-56
2022/06/17 00:59:03;;;;;;;;;7.75;4.00;;;;;;;;5080731;27;51202;-58
2022/06/17 01:01:58;;;;;;;;;5.75;4.00;;;;;;;;5080899;27;51112;-55
2022/06/17 01:04:51;;;;;;;;;5.00;4.50;;;;;;;;5080855;27;51057;-55
2022/06/17 01:07:46;;;;;;;;;14.00;11.25;;;;;;;;5080589;27;51091;-55
2022/06/17 01:10:31;;;;;;;;;40.50;30.75;;;;;;;;5080906;27;51031;-56
2022/06/17 01:13:15;;;;;;;;;26.75;24.50;;;;;;;;5067392;27;51256;-55
2022/06/17 01:15:59;;;;;;;;;22.50;17.25;;;;;;;;5080350;27;50969;-56
2022/06/17 01:18:45;;;;;;;;;23.00;20.50;;;;;;;;5080109;27;51158;-54
2022/06/17 01:21:36;;;;;;;;;16.75;15.75;;;;;;;;5080825;27;51023;-55
2022/06/17 01:24:20;;;;;;;;;20.25;18.00;;;;;;;;5080222;27;51351;-57
2022/06/17 01:27:05;;;;;;;;;20.50;18.00;;;;;;;;5079922;27;51061;-56
2022/06/17 01:29:49;;;;;;;;;22.00;22.00;;;;;;;;5080454;27;51071;-55
2022/06/17 01:32:36;;;;;;;;;25.75;21.50;;;;;;;;5080028;27;51114;-57
2022/06/17 01:35:22;;;;;;;;;20.25;19.25;;;;;;;;5080086;27;51238;-55
2022/06/17 01:38:06;;;;;;;;;20.50;19.75;;;;;;;;5079531;27;51058;-58
2022/06/17 01:40:52;;;;;;;;;17.25;15.50;;;;;;;;5077501;27;50989;-56
2022/06/17 01:43:40;;;;;;;;;15.00;13.75;;;;;;;;5075975;27;51136;-55
2022/06/17 01:46:31;;;;;;;;;16.25;14.25;;;;;;;;5080320;27;51075;-57
2022/06/17 01:49:24;;;;;;;;;17.00;12.00;;;;;;;;5079430;27;51091;-55
2022/06/17 01:52:12;;;;;;;;;13.50;12.75;;;;;;;;5070204;27;51201;-57
2022/06/17 01:54:59;;;;;;;;;12.25;11.00;;;;;;;;5074965;27;50991;-56
2022/06/17 01:57:50;;;;;;;;;15.00;10.00;;;;;;;;5079896;27;51071;-57
2022/06/17 02:00:35;;;;;;;;;14.25;11.75;;;;;;;;5079796;27;51460;-56
2022/06/17 02:03:32;;;;;;;;;13.75;11.25;;;;;;;;5079654;28;51031;-56
2022/06/17 02:06:16;;;;;;;;;8.00;8.00;;;;;;;;5079634;28;51393;-57
2022/06/17 02:09:00;;;;;;;;;12.75;12.75;;;;;;;;5079734;28;51110;-57
2022/06/17 02:11:46;;;;;;;;;11.25;10.25;;;;;;;;5080336;28;51112;-54
2022/06/17 02:14:32;;;;;;;;;16.00;13.25;;;;;;;;5077119;28;51425;-55
2022/06/17 02:17:17;;;;;;;;;12.75;12.75;;;;;;;;5079449;28;51125;-56
2022/06/17 02:20:01;;;;;;;;;15.00;13.00;;;;;;;;5079779;28;51066;-57
2022/06/17 02:22:46;;;;;;;;;13.25;13.25;;;;;;;;5079108;28;51012;-57
2022/06/17 02:25:34;;;;;;;;;15.25;13.50;;;;;;;;5079650;28;51078;-55
2022/06/17 02:28:20;;;;;;;;;11.75;11.75;;;;;;;;5079443;28;51155;-56
2022/06/17 02:31:08;;;;;;;;;13.00;12.00;;;;;;;;5079690;28;51137;-54
2022/06/17 02:33:53;;;;;;;;;19.50;16.25;;;;;;;;5063953;28;51117;-56
2022/06/17 02:36:41;;;;;;;;;17.50;12.50;;;;;;;;5079546;28;51167;-56
2022/06/17 02:39:27;;;;;;;;;16.00;14.50;;;;;;;;5079143;28;51535;-56
2022/06/17 02:42:20;;;;;;;;;16.25;13.25;;;;;;;;5077693;28;51174;-56
2022/06/17 02:45:11;;;;;;;;;23.00;18.75;;;;;;;;5079621;28;51407;-55
2022/06/17 02:47:55;;;;;;;;;19.00;19.00;;;;;;;;5079663;27;51059;-56
2022/06/17 02:50:40;;;;;;;;;24.25;23.00;;;;;;;;5082837;27;51422;-58
2022/06/17 02:53:27;;;;;;;;;27.50;24.75;;;;;;;;5083146;27;51085;-56
2022/06/17 02:56:24;;;;;;;;;25.25;21.25;;;;;;;;5083232;27;51477;-56
2022/06/17 02:59:20;;;;;;;;;26.50;23.75;;;;;;;;5082906;27;51142;-57
2022/06/17 03:02:30;;;;;;;;;24.75;22.25;;;;;;;;5083267;27;50966;-53
2022/06/17 03:05:24;;;;;;;;;23.25;21.50;;;;;;;;5082855;27;51150;-56
2022/06/17 03:08:21;;;;;;;;;21.50;20.25;;;;;;;;5077738;27;51141;-56
2022/06/17 03:11:07;;;;;;;;;20.25;19.00;;;;;;;;5080472;27;51423;-57
2022/06/17 03:13:53;;;;;;;;;22.50;20.00;;;;;;;;5083078;27;51641;-56
2022/06/17 03:16:38;;;;;;;;;20.25;20.25;;;;;;;;5082434;27;51441;-55
2022/06/17 03:19:23;;;;;;;;;22.00;20.50;;;;;;;;5082843;27;51107;-57
2022/06/17 03:22:09;;;;;;;;;21.75;19.00;;;;;;;;5082814;27;51535;-56
2022/06/17 03:25:12;;;;;;;;;24.50;21.00;;;;;;;;5082676;27;51039;-55
2022/06/17 03:28:00;;;;;;;;;24.25;19.50;;;;;;;;5082893;27;51145;-56
2022/06/17 03:30:46;;;;;;;;;23.75;21.00;;;;;;;;5081810;27;51071;-57
2022/06/17 03:33:37;;;;;;;;;21.00;18.50;;;;;;;;5082763;27;51137;-55
2022/06/17 03:36:24;;;;;;;;;20.50;20.50;;;;;;;;5082665;27;51555;-56
2022/06/17 03:39:14;;;;;;;;;21.25;18.50;;;;;;;;5082625;27;51046;-56
2022/06/17 03:42:01;;;;;;;;;20.75;20.00;;;;;;;;5080841;27;51039;-57
2022/06/17 03:44:53;;;;;;;;;21.50;19.75;;;;;;;;5080282;27;51124;-56
2022/06/17 03:47:57;;;;;;;;;25.00;17.25;;;;;;;;5082227;27;51596;-55
2022/06/17 03:50:44;;;;;;;;;20.25;16.25;;;;;;;;5081646;27;51166;-58
2022/06/17 03:53:30;;;;;;;;;19.25;17.25;;;;;;;;5082387;27;51044;-58
2022/06/17 03:56:26;;;;;;;;;18.00;16.25;;;;;;;;5081961;27;51447;-54
2022/06/17 03:59:15;;;;;;;;;20.00;16.50;;;;;;;;5081655;27;51172;-56
2022/06/17 04:02:05;;;;;;;;;19.00;18.00;;;;;;;;5081682;27;51459;-55
2022/06/17 04:04:51;;;;;;;;;22.75;20.75;;;;;;;;5081855;27;51083;-56
2022/06/17 04:07:35;;;;;;;;;21.25;20.00;;;;;;;;5081634;27;51084;-56
2022/06/17 04:10:21;;;;;;;;;23.75;20.25;;;;;;;;5081764;27;51146;-56
2022/06/17 04:13:06;;;;;;;;;24.75;20.25;;;;;;;;5082081;27;52356;-56
2022/06/17 04:16:04;;;;;;;;;24.25;23.25;;;;;;;;5077000;27;51161;-56
2022/06/17 04:18:49;;;;;;;;;25.50;23.75;;;;;;;;5081566;27;51090;-58
2022/06/17 04:21:33;;;;;;;;;23.00;20.25;;;;;;;;5081722;27;51194;-55
2022/06/17 04:24:28;;;;;;;;;30.25;24.75;;;;;;;;5081561;27;51170;-57
2022/06/17 04:27:13;;;;;;;;;24.50;24.50;;;;;;;;5055003;27;51068;-57
2022/06/17 04:29:58;;;;;;;;;29.25;26.50;;;;;;;;5081241;27;51045;-58
2022/06/17 04:32:42;;;;;;;;;25.25;22.50;;;;;;;;5078534;27;51482;-56
2022/06/17 04:35:26;;;;;;;;;27.00;24.50;;;;;;;;5080595;27;51157;-56
2022/06/17 04:38:10;;;;;;;;;26.00;23.00;;;;;;;;5079777;27;51557;-54
2022/06/17 04:40:58;;;;;;;;;24.75;23.75;;;;;;;;5078303;27;51051;-55
2022/06/17 04:43:47;;;;;;;;;26.75;22.50;;;;;;;;5081476;27;51524;-56
2022/06/17 04:46:44;;;;;;;;;18.50;18.50;;;;;;;;5080801;27;51530;-57
2022/06/17 04:49:31;;;;;;;;;23.00;19.75;;;;;;;;5081158;27;51043;-55
2022/06/17 04:52:21;;;;;;;;;29.50;22.75;;;;;;;;5081079;27;51505;-56
2022/06/17 04:55:11;;;;;;;;;26.75;19.75;;;;;;;;5081351;27;51478;-56
2022/06/17 04:57:56;;;;;;;;;26.75;25.00;;;;;;;;5080806;27;51025;-56
2022/06/17 05:00:43;;;;;;;;;34.25;29.50;;;;;;;;5080927;27;51170;-55
2022/06/17 05:03:29;;;;;;;;;28.00;25.25;;;;;;;;5080417;27;51074;-58
2022/06/17 05:06:13;;;;;;;;;36.75;29.75;;;;;;;;5080166;27;51145;-57
2022/06/17 05:09:01;;;;;;;;;45.25;32.25;;;;;;;;5081022;27;51095;-56
2022/06/17 05:11:48;;;;;;;;;45.25;36.75;;;;;;;;5077496;27;51336;-56
2022/06/17 05:14:49;;;;;;;;;44.75;35.75;;;;;;;;5080746;27;51068;-56
2022/06/17 05:17:34;;;;;;;;;44.50;35.50;;;;;;;;5080633;27;51024;-56
2022/06/17 05:20:20;;;;;;;;;48.00;38.00;;;;;;;;5080496;27;51157;-57
2022/06/17 05:23:06;;;;;;;;;52.00;39.50;;;;;;;;5080065;27;51148;-56
2022/06/17 05:25:50;;;;;;;;;48.75;39.50;;;;;;;;5080181;27;51154;-56
2022/06/17 05:28:34;;;;;;;;;48.75;38.75;;;;;;;;5080203;27;51481;-55
2022/06/17 05:31:21;;;;;;;;;50.25;40.25;;;;;;;;5077048;27;51218;-57
2022/06/17 05:34:06;;;;;;;;;53.00;42.25;;;;;;;;5080610;27;51166;-56
2022/06/17 05:36:52;;;;;;;;;57.25;45.00;;;;;;;;5080169;27;51540;-57
2022/06/17 05:39:36;;;;;;;;;53.25;42.25;;;;;;;;5080109;27;51199;-56
2022/06/17 05:42:21;;;;;;;;;49.75;41.00;;;;;;;;5079802;27;51171;-57
2022/06/17 05:45:05;;;;;;;;;48.75;38.75;;;;;;;;5080378;27;51049;-57
2022/06/17 05:47:50;;;;;;;;;49.00;39.50;;;;;;;;5080058;27;51058;-57
2022/06/17 05:50:34;;;;;;;;;61.25;46.25;;;;;;;;5079883;27;51074;-56
2022/06/17 05:53:18;;;;;;;;;63.75;48.75;;;;;;;;5077928;27;51181;-57
2022/06/17 05:56:03;;;;;;;;;70.00;52.50;;;;;;;;5079822;27;51454;-55
2022/06/17 05:58:47;;;;;;;;;65.00;50.00;;;;;;;;5079075;27;51177;-56
2022/06/17 06:01:32;;;;;;;;;58.50;48.00;;;;;;;;5079459;27;51508;-55
2022/06/17 06:04:16;;;;;;;;;62.25;48.00;;;;;;;;5079710;28;51167;-58
2022/06/17 06:07:01;;;;;;;;;64.75;51.25;;;;;;;;5079574;28;51030;-55
2022/06/17 06:09:45;;;;;;;;;64.00;49.25;;;;;;;;5079891;28;51158;-56
2022/06/17 06:15:36;;;;;;;;;55.50;44.75;;;;;;;;5079455;28;50950;-56
2022/06/17 06:18:22;;;;;;;;;49.75;41.50;;;;;;;;5079848;28;51202;-57
2022/06/17 06:21:07;;;;;;;;;47.75;39.00;;;;;;;;5073610;28;51047;-56
2022/06/17 06:23:51;;;;;;;;;52.50;41.75;;;;;;;;5082928;27;51037;-57
2022/06/17 06:26:35;;;;;;;;;56.50;44.25;;;;;;;;5073336;27;51049;-56
2022/06/17 06:29:20;;;;;;;;;50.25;39.75;;;;;;;;5083604;27;51128;-55
2022/06/17 06:32:04;;;;;;;;;51.50;42.50;;;;;;;;5083230;27;51099;-56
2022/06/17 06:34:50;;;;;;;;;47.50;39.00;;;;;;;;5083433;27;51189;-57
2022/06/17 06:37:35;;;;;;;;;45.75;38.25;;;;;;;;5083252;27;51201;-56
2022/06/17 06:40:19;;;;;;;;;50.75;40.75;;;;;;;;5083554;27;51123;-57
2022/06/17 06:43:10;;;;;;;;;50.75;41.00;;;;;;;;5083604;27;51005;-56
2022/06/17 06:45:54;;;;;;;;;50.00;40.25;;;;;;;;5083053;27;51645;-57
2022/06/17 06:48:38;;;;;;;;;51.25;41.75;;;;;;;;5083593;27;51211;-56
2022/06/17 06:51:22;;;;;;;;;47.00;38.25;;;;;;;;5083139;27;51105;-57
2022/06/17 06:54:07;;;;;;;;;48.25;39.00;;;;;;;;5083671;27;51213;-58
2022/06/17 06:56:52;;;;;;;;;48.25;38.25;;;;;;;;5083017;27;51099;-56
2022/06/17 06:59:37;;;;;;;;;48.50;40.50;;;;;;;;5083291;27;51077;-57
2022/06/17 07:02:21;;;;;;;;;50.00;39.25;;;;;;;;5083052;27;51993;-56
2022/06/17 07:05:06;;;;;;;;;49.00;38.75;;;;;;;;5082874;27;51053;-55
2022/06/17 07:07:50;;;;;;;;;51.25;40.50;;;;;;;;5082931;27;50976;-56
2022/06/17 07:10:35;;;;;;;;;48.75;40.00;;;;;;;;5083201;27;51170;-56
2022/06/17 07:13:21;;;;;;;;;49.00;41.00;;;;;;;;5083447;27;51144;-57
2022/06/17 07:16:07;;;;;;;;;50.50;42.25;;;;;;;;5080380;27;51460;-58
2022/06/17 07:18:52;;;;;;;;;49.25;41.25;;;;;;;;5073025;27;51145;-58
2022/06/17 07:21:36;;;;;;;;;49.75;39.75;;;;;;;;5074407;27;51445;-57
2022/06/17 07:24:21;;;;;;;;;49.25;39.75;;;;;;;;5078730;27;51094;-55
2022/06/17 07:27:05;;;;;;;;;43.00;35.75;;;;;;;;5080711;27;51118;-55
2022/06/17 07:29:50;;;;;;;;;44.75;35.75;;;;;;;;5082323;27;51044;-57
2022/06/17 07:32:34;;;;;;;;;47.00;37.75;;;;;;;;5082383;27;51559;-58
2022/06/17 07:35:19;;;;;;;;;46.50;37.75;;;;;;;;5081727;27;51055;-57
2022/06/17 07:41:06;;;;;;;;;47.25;38.00;;;;;;;;5081801;27;51370;-56
2022/06/17 07:43:52;;;;;;;;;46.75;38.00;;;;;;;;5082374;27;51603;-57
2022/06/17 07:46:36;;;;;;;;;47.00;38.75;;;;;;;;5082058;27;51038;-56
2022/06/17 07:49:20;;;;;;;;;46.50;38.25;;;;;;;;5082331;27;51120;-57
2022/06/17 07:52:05;;;;;;;;;36.50;32.50;;;;;;;;5081535;27;51476;-58
2022/06/17 07:54:49;;;;;;;;;46.00;36.50;;;;;;;;5081732;27;51193;-58
2022/06/17 07:57:34;;;;;;;;;49.50;38.75;;;;;;;;5082228;27;51547;-58
2022/06/17 08:00:21;;;;;;;;;50.50;39.50;;;;;;;;5081893;27;51126;-58
2022/06/17 08:03:05;;;;;;;;;52.75;42.25;;;;;;;;5081931;27;51080;-55
2022/06/17 08:05:52;;;;;;;;;47.25;38.25;;;;;;;;5081575;27;51363;-55
2022/06/17 08:08:36;;;;;;;;;48.00;38.75;;;;;;;;5081863;27;51099;-54
2022/06/17 08:11:20;;;;;;;;;39.75;33.50;;;;;;;;5081778;27;51067;-57
2022/06/17 08:14:05;;;;;;;;;50.00;40.75;;;;;;;;5082099;27;51087;-56
2022/06/17 08:16:49;;;;;;;;;50.75;39.00;;;;;;;;5081743;27;51008;-55
2022/06/17 08:19:33;;;;;;;;;42.00;35.25;;;;;;;;5081369;27;51198;-59
2022/06/17 08:22:19;;;;;;;;;34.75;31.50;;;;;;;;5076968;27;51731;-55
2022/06/17 08:25:03;;;;;;;;;34.75;31.00;;;;;;;;5062498;27;51182;-56
2022/06/17 08:27:52;;;;;;;;;31.75;26.75;;;;;;;;5053344;27;51457;-58
2022/06/17 08:30:42;;;;;;;;;35.50;30.25;;;;;;;;5079939;27;51347;-57
2022/06/17 08:33:29;;;;;;;;;34.75;28.75;;;;;;;;5080986;27;51509;-56
2022/06/17 08:36:15;;;;;;;;;32.00;27.50;;;;;;;;5080427;27;51163;-53
2022/06/17 08:39:01;;;;;;;;;36.75;32.00;;;;;;;;5080836;27;51218;-54
2022/06/17 08:41:59;;;;;;;;;30.50;29.50;;;;;;;;5080329;27;51057;-56
2022/06/17 08:44:53;;;;;;;;;30.25;28.00;;;;;;;;5080833;27;51530;-55
2022/06/17 08:47:38;;;;;;;;;30.50;27.25;;;;;;;;5080655;27;51533;-54
2022/06/17 08:50:38;;;;;;;;;34.75;31.00;;;;;;;;5080112;27;51058;-55
2022/06/17 08:53:30;;;;;;;;;33.00;27.25;;;;;;;;5080673;27;51067;-57
2022/06/17 08:56:18;;;;;;;;;27.50;26.25;;;;;;;;5080727;27;51517;-59
2022/06/17 08:59:18;;;;;;;;;29.25;26.75;;;;;;;;5080704;27;51005;-57
2022/06/17 09:02:21;;;;;;;;;33.25;26.75;;;;;;;;5080309;27;51166;-57
2022/06/17 09:05:14;;;;;;;;;32.50;27.25;;;;;;;;5080812;27;51041;-56
2022/06/17 09:08:17;;;;;;;;;30.25;25.25;;;;;;;;5079790;27;51007;-56
2022/06/17 09:11:17;;;;;;;;;27.75;23.00;;;;;;;;5080398;27;50970;-57
2022/06/17 09:14:20;;;;;;;;;29.50;24.50;;;;;;;;5080025;27;51598;-56
2022/06/17 09:17:18;;;;;;;;;24.00;20.00;;;;;;;;5063648;27;51420;-51
2022/06/17 09:20:04;;;;;;;;;25.50;22.00;;;;;;;;5079594;27;50950;-50
2022/06/17 09:22:51;;;;;;;;;22.50;21.00;;;;;;;;5079757;27;51165;-52
2022/06/17 09:25:41;;;;;;;;;28.50;22.50;;;;;;;;5080239;27;51173;-50
2022/06/17 09:28:31;;;;;;;;;27.50;23.00;;;;;;;;5079280;27;51174;-53
2022/06/17 09:31:25;;;;;;;;;26.00;23.75;;;;;;;;5080000;27;51158;-51
2022/06/17 09:34:09;;;;;;;;;27.25;25.25;;;;;;;;5079388;27;51182;-51
2022/06/17 09:37:13;;;;;;;;;21.25;20.25;;;;;;;;5079965;27;51161;-54
2022/06/17 09:40:02;;;;;;;;;20.25;20.25;;;;;;;;5079881;27;51131;-52
2022/06/17 09:42:46;;;;;;;;;25.00;22.00;;;;;;;;5079286;27;51186;-52
2022/06/17 09:45:41;;;;;;;;;16.75;15.00;;;;;;;;5079740;27;51064;-52
2022/06/17 09:48:36;;;;;;;;;19.75;17.00;;;;;;;;5079198;27;51163;-47
2022/06/17 09:51:31;;;;;;;;;19.00;16.50;;;;;;;;5079797;27;51004;-54
2022/06/17 09:54:15;;;;;;;;;18.75;18.75;;;;;;;;5079455;27;51050;-50
2022/06/17 09:57:05;;;;;;;;;18.00;16.75;;;;;;;;5079637;27;51107;-56
2022/06/17 09:59:59;;;;;;;;;21.75;18.25;;;;;;;;5078892;27;52024;-54
2022/06/17 10:02:49;;;;;;;;;22.25;17.75;;;;;;;;5079462;27;51539;-54
2022/06/17 10:05:39;;;;;;;;;16.75;15.50;;;;;;;;5079136;27;51101;-52
2022/06/17 10:08:29;;;;;;;;;18.75;16.25;;;;;;;;5078181;28;51179;-53
2022/06/17 10:11:21;;;;;;;;;21.25;18.25;;;;;;;;5079105;28;51538;-53
2022/06/17 10:14:12;;;;;;;;;27.75;23.25;;;;;;;;5078259;28;51499;-50
2022/06/17 10:20:32;;;;;;;;;19.75;17.00;;;;;;;;5078956;28;51110;-53
2022/06/17 10:23:19;;;;;;;;;17.00;15.75;;;;;;;;5063586;28;51143;-52
2022/06/17 10:26:22;;;;;;;;;25.75;16.25;;;;;;;;5079204;28;50965;-55
2022/06/17 10:29:06;;;;;;;;;23.25;15.00;;;;;;;;5078661;28;51041;-54
2022/06/17 10:31:51;;;;;;;;;16.75;16.75;;;;;;;;5078831;28;51496;-53
2022/06/17 10:34:44;;;;;;;;;18.75;16.25;;;;;;;;5078711;28;51094;-51
2022/06/17 10:37:30;;;;;;;;;16.75;15.25;;;;;;;;5079307;28;51155;-53
2022/06/17 10:40:16;;;;;;;;;18.00;16.75;;;;;;;;5046717;28;51421;-53
2022/06/17 10:43:02;;;;;;;;;17.50;13.50;;;;;;;;5078114;28;51502;-55
2022/06/17 10:45:48;;;;;;;;;16.75;14.75;;;;;;;;5078185;28;51076;-55
2022/06/17 10:48:35;;;;;;;;;15.50;14.00;;;;;;;;5078696;28;50941;-53
2022/06/17 10:51:19;;;;;;;;;14.00;14.00;;;;;;;;5070083;28;52736;-51
2022/06/17 10:54:06;;;;;;;;;12.00;11.25;;;;;;;;5078581;28;51109;-52
2022/06/17 10:56:57;;;;;;;;;13.25;11.25;;;;;;;;5079008;28;51424;-54
2022/06/17 10:59:43;;;;;;;;;15.50;12.00;;;;;;;;5078741;28;51162;-53
2022/06/17 11:02:30;;;;;;;;;14.50;14.50;;;;;;;;5078912;28;51241;-53
2022/06/17 11:05:27;;;;;;;;;12.00;12.00;;;;;;;;5078757;28;51426;-49
2022/06/17 11:08:22;;;;;;;;;12.75;12.25;;;;;;;;5078844;28;51166;-53
2022/06/17 11:14:31;;;;;;;;;10.75;10.75;;;;;;;;5054191;27;51078;-54
2022/06/17 11:17:24;;;;;;;;;11.75;11.00;;;;;;;;5082106;27;51472;-54
2022/06/17 11:20:23;;;;;;;;;11.75;9.50;;;;;;;;5082424;27;51138;-51
2022/06/17 11:23:20;;;;;;;;;11.00;8.25;;;;;;;;5082410;27;51099;-54
2022/06/17 11:26:07;;;;;;;;;9.00;7.75;;;;;;;;5082316;27;51079;-54
2022/06/17 11:28:53;;;;;;;;;10.75;9.75;;;;;;;;5081853;27;51167;-55
2022/06/17 11:31:39;;;;;;;;;12.00;10.00;;;;;;;;5081541;27;51461;-54
2022/06/17 11:34:26;;;;;;;;;14.00;9.50;;;;;;;;5081867;27;51479;-52
2022/06/17 11:37:13;;;;;;;;;12.25;10.75;;;;;;;;5081700;27;51036;-52
2022/06/17 11:40:09;;;;;;;;;10.75;9.75;;;;;;;;5082458;27;51095;-52
2022/06/17 11:42:53;;;;;;;;;11.75;11.50;;;;;;;;5081663;27;51481;-54
2022/06/17 11:45:45;;;;;;;;;15.75;11.50;;;;;;;;5082210;27;51171;-52
2022/06/17 11:48:30;;;;;;;;;12.00;11.00;;;;;;;;5083339;27;51230;-55
2022/06/17 11:51:34;;;;;;;;;13.50;13.25;;;;;;;;5081093;27;51206;-49
2022/06/17 11:54:33;;;;;;;;;14.25;11.50;;;;;;;;5081823;27;51078;-53
2022/06/17 11:57:27;;;;;;;;;11.25;8.25;;;;;;;;5081782;27;51363;-52
2022/06/17 12:00:20;;;;;;;;;18.75;15.25;;;;;;;;5081542;27;51546;-53
2022/06/17 12:03:04;;;;;;;;;15.00;13.50;;;;;;;;5080548;27;51112;-52
2022/06/17 12:06:00;;;;;;;;;23.50;20.25;;;;;;;;5081440;27;51113;-54
2022/06/17 12:08:47;;;;;;;;;14.50;11.50;;;;;;;;5080961;27;51606;-50
2022/06/17 12:11:44;;;;;;;;;13.25;9.00;;;;;;;;5081105;27;51384;-54
2022/06/17 12:14:43;;;;;;;;;9.25;9.00;;;;;;;;5077006;27;51138;-54
2022/06/17 12:17:28;;;;;;;;;16.00;12.75;;;;;;;;5080227;27;51130;-52
2022/06/17 12:20:40;;;;;;;;;13.75;11.00;;;;;;;;5063688;27;51571;-56
2022/06/17 12:23:42;;;;;;;;;14.25;12.75;;;;;;;;5075676;27;50991;-58
2022/06/17 12:26:32;;;;;;;;;15.75;12.25;;;;;;;;5081017;27;51329;-52
2022/06/17 12:29:16;;;;;;;;;12.00;11.00;;;;;;;;5080895;27;51122;-51
2022/06/17 12:32:06;;;;;;;;;17.75;13.25;;;;;;;;5080766;27;51078;-56
2022/06/17 12:34:50;;;;;;;;;16.50;13.00;;;;;;;;5079269;27;51533;-54
2022/06/17 12:37:41;;;;;;;;;13.25;13.25;;;;;;;;5080915;27;51064;-55
2022/06/17 12:40:37;;;;;;;;;13.25;12.25;;;;;;;;5066403;27;51140;-56
2022/06/17 12:43:40;;;;;;;;;14.75;14.25;;;;;;;;5080525;27;51077;-55
2022/06/17 12:46:24;;;;;;;;;16.00;13.75;;;;;;;;5080903;27;51131;-55
2022/06/17 12:56:21;;;;;;;;;16.75;15.75;;;;;;;;5056478;27;51239;-56
2022/06/17 12:59:08;;;;;;;;;17.00;15.00;;;;;;;;4964402;28;51198;-53
2022/06/17 13:01:58;;;;;;;;;20.50;15.25;;;;;;;;4961663;28;51090;-55
2022/06/17 13:04:59;;;;;;;;;11.00;10.00;;;;;;;;5067545;27;51179;-53
2022/06/17 13:08:03;;;;;;;;;14.00;10.75;;;;;;;;5079950;27;51096;-54
2022/06/17 13:10:50;;;;;;;;;9.75;9.25;;;;;;;;5076881;27;51149;-55
2022/06/17 13:13:53;;;;;;;;;10.50;10.50;;;;;;;;5079353;27;51216;-52
2022/06/17 13:16:57;;;;;;;;;11.00;10.00;;;;;;;;5080025;27;51179;-56
2022/06/17 13:19:51;;;;;;;;;11.00;8.75;;;;;;;;5077159;27;51428;-53
2022/06/17 13:22:48;;;;;;;;;10.00;8.75;;;;;;;;5079728;27;51175;-53
2022/06/17 13:25:50;;;;;;;;;9.00;7.00;;;;;;;;5082971;27;51154;-52
2022/06/17 13:28:38;;;;;;;;;16.00;11.00;;;;;;;;5080448;27;51194;-52
2022/06/17 13:31:27;;;;;;;;;9.50;9.50;;;;;;;;5061860;27;51163;-51
2022/06/17 13:34:29;;;;;;;;;17.50;12.75;;;;;;;;5079046;27;51247;-56
2022/06/17 13:37:19;;;;;;;;;12.50;11.00;;;;;;;;5080116;27;51212;-53
2022/06/17 13:40:20;;;;;;;;;11.25;11.25;;;;;;;;5080154;27;51084;-54
2022/06/17 13:43:07;;;;;;;;;19.75;14.00;;;;;;;;5079985;27;51091;-52
2022/06/17 13:46:00;;;;;;;;;14.50;14.50;;;;;;;;5079977;27;51042;-54
2022/06/17 13:48:51;;;;;;;;;15.50;14.00;;;;;;;;5079253;27;51160;-52
2022/06/17 13:51:54;;;;;;;;;15.50;13.50;;;;;;;;5079603;27;51129;-50
2022/06/17 13:55:00;;;;;;;;;28.25;22.00;;;;;;;;5071578;27;51574;-52
2022/06/17 13:57:53;;;;;;;;;17.75;14.50;;;;;;;;5076753;27;51168;-55
2022/06/17 14:00:47;;;;;;;;;16.00;13.00;;;;;;;;5078927;27;51509;-52
2022/06/17 14:03:58;;;;;;;;;30.75;25.25;;;;;;;;5078923;27;51141;-56
2022/06/17 14:07:02;;;;;;;;;17.50;17.50;;;;;;;;5062567;27;51548;-51
2022/06/17 14:10:04;;;;;;;;;20.25;20.00;;;;;;;;5078788;28;51157;-53
2022/06/17 14:12:48;;;;;;;;;18.50;14.75;;;;;;;;5077131;28;51308;-53
2022/06/17 14:15:38;;;;;;;;;11.75;9.25;;;;;;;;5076379;28;51086;-52
2022/06/17 14:18:36;;;;;;;;;10.50;8.75;;;;;;;;5079004;28;51260;-51
2022/06/17 14:21:20;;;;;;;;;10.25;10.25;;;;;;;;5077841;28;51414;-54
2022/06/17 14:24:17;;;;;;;;;15.75;11.75;;;;;;;;5079394;28;51195;-54
2022/06/17 14:27:02;;;;;;;;;11.75;11.25;;;;;;;;5075153;28;51139;-52
2022/06/17 14:30:08;;;;;;;;;15.00;13.00;;;;;;;;5078928;28;51098;-55
2022/06/17 14:32:54;;;;;;;;;14.25;12.75;;;;;;;;5079076;28;51081;-54
2022/06/17 14:35:46;;;;;;;;;20.75;12.50;;;;;;;;5075720;28;51174;-53
2022/06/17 14:38:40;;;;;;;;;16.75;15.25;;;;;;;;5079100;28;51333;-47
2022/06/17 14:44:48;;;;;;;;;14.75;14.75;;;;;;;;5081621;27;53002;-53
2022/06/17 14:47:58;;;;;;;;;17.25;16.00;;;;;;;;5079991;27;51139;-53
2022/06/17 14:50:50;;;;;;;;;7.00;7.00;;;;;;;;5082633;27;51139;-53
2022/06/17 14:53:50;;;;;;;;;14.00;14.00;;;;;;;;5082829;27;51499;-52
2022/06/17 14:56:38;;;;;;;;;13.00;12.50;;;;;;;;5080323;27;51060;-51
2022/06/17 14:59:35;;;;;;;;;15.75;12.50;;;;;;;;5082426;27;51023;-52
2022/06/17 15:02:38;;;;;;;;;12.75;10.00;;;;;;;;5081999;27;51471;-49
2022/06/17 15:05:33;;;;;;;;;13.75;11.75;;;;;;;;5082408;27;51148;-52
2022/06/17 15:08:43;;;;;;;;;13.25;11.75;;;;;;;;5082414;27;51240;-55
2022/06/17 15:11:29;;;;;;;;;15.75;15.50;;;;;;;;5082072;27;51477;-53
2022/06/17 15:14:17;;;;;;;;;13.50;9.25;;;;;;;;5082336;27;51241;-51
2022/06/17 15:17:12;;;;;;;;;7.25;5.25;;;;;;;;5082523;27;51184;-51
2022/06/17 15:19:58;;;;;;;;;9.50;5.75;;;;;;;;5082505;27;51098;-49
2022/06/17 15:23:03;;;;;;;;;5.50;1.75;;;;;;;;5066767;27;51270;-51
2022/06/17 15:26:07;;;;;;;;;8.75;7.75;;;;;;;;5050763;27;51177;-53
2022/06/17 15:28:58;;;;;;;;;10.75;6.00;;;;;;;;5078811;27;51152;-51
2022/06/17 15:31:49;;;;;;;;;10.75;6.75;;;;;;;;5081991;27;51417;-49
2022/06/17 15:34:44;;;;;;;;;8.75;7.50;;;;;;;;5081818;27;51280;-53
2022/06/17 15:37:30;;;;;;;;;3.00;3.00;;;;;;;;5073685;27;51170;-51
2022/06/17 15:40:19;;;;;;;;;3.75;3.75;;;;;;;;5076418;27;51113;-49
2022/06/17 15:43:09;;;;;;;;;5.00;5.00;;;;;;;;5081913;27;51112;-51
2022/06/17 15:45:53;;;;;;;;;7.25;5.00;;;;;;;;5081871;27;51151;-53
2022/06/17 15:48:38;;;;;;;;;10.50;5.50;;;;;;;;5081533;27;51508;-54
2022/06/17 15:51:23;;;;;;;;;6.25;4.75;;;;;;;;5081102;27;51550;-54
2022/06/17 15:54:07;;;;;;;;;8.00;5.50;;;;;;;;5081340;27;51314;-56
2022/06/17 15:56:52;;;;;;;;;6.75;5.75;;;;;;;;5081032;27;51319;-58
2022/06/17 15:59:36;;;;;;;;;13.25;8.75;;;;;;;;5061318;27;51183;-54
2022/06/17 16:02:25;;;;;;;;;9.00;9.00;;;;;;;;5079516;27;51105;-55
2022/06/17 16:05:14;;;;;;;;;9.00;8.25;;;;;;;;5081074;27;51146;-54
2022/06/17 16:08:03;;;;;;;;;9.25;6.75;;;;;;;;5081157;27;51242;-56
2022/06/17 16:11:04;;;;;;;;;8.50;5.50;;;;;;;;5081166;27;51250;-55
2022/06/17 16:13:49;;;;;;;;;11.00;8.25;;;;;;;;5081231;27;51465;-56
2022/06/17 16:16:45;;;;;;;;;9.50;9.00;;;;;;;;5080899;27;51331;-55
2022/06/17 16:19:30;;;;;;;;;8.75;6.50;;;;;;;;5078960;27;51211;-54
2022/06/17 16:22:16;;;;;;;;;7.00;6.00;;;;;;;;5073761;27;51416;-54
2022/06/17 16:25:02;;;;;;;;;10.25;8.25;;;;;;;;5064501;27;51170;-55
2022/06/17 16:27:54;;;;;;;;;11.50;7.50;;;;;;;;5076027;27;51272;-53
2022/06/17 16:30:46;;;;;;;;;10.50;7.00;;;;;;;;5079169;27;51173;-54
2022/06/17 16:33:32;;;;;;;;;7.00;6.00;;;;;;;;5079536;27;51101;-57
2022/06/17 16:36:25;;;;;;;;;8.25;8.00;;;;;;;;5080869;27;51130;-58
2022/06/17 16:39:28;;;;;;;;;9.00;7.75;;;;;;;;5079490;27;51249;-58
2022/06/17 16:45:31;;;;;;;;;13.50;11.00;;;;;;;;5078837;27;51271;-58
2022/06/17 16:48:15;;;;;;;;;16.25;11.75;;;;;;;;5071326;27;51413;-58
2022/06/17 16:51:00;;;;;;;;;12.75;9.50;;;;;;;;5076883;27;51240;-58
2022/06/17 16:53:45;;;;;;;;;10.25;9.50;;;;;;;;5079998;27;51434;-58
2022/06/17 16:56:31;;;;;;;;;12.00;10.00;;;;;;;;5080731;27;51100;-58